createdAt,value
2018-05-07T00:00:41.030Z,101897
2018-05-07T00:03:09.902Z,101901
2018-05-07T00:05:37.990Z,101895
2018-05-07T00:08:06.908Z,101900
2018-05-07T00:10:35.034Z,101906
2018-05-07T00:13:04.012Z,101904
2018-05-07T00:15:32.062Z,101901
2018-05-07T00:18:00.179Z,101894
2018-05-07T00:20:29.062Z,101896
2018-05-07T00:22:57.960Z,101897
2018-05-07T00:25:27.018Z,101892
2018-05-07T00:27:55.137Z,101887
2018-05-07T00:30:23.248Z,101885
2018-05-07T00:32:51.604Z,101890
2018-05-07T00:35:19.720Z,101885
2018-05-07T00:37:47.836Z,101886
2018-05-07T00:40:15.920Z,101892
2018-05-07T00:42:44.383Z,101886
2018-05-07T00:45:12.490Z,101890
2018-05-07T00:47:40.619Z,101883
2018-05-07T00:50:09.226Z,101885
2018-05-07T00:52:37.344Z,101890
2018-05-07T00:55:22.263Z,101891
2018-05-07T00:57:50.357Z,101891
2018-05-07T01:00:18.459Z,101897
2018-05-07T01:02:46.661Z,101894
2018-05-07T01:05:14.938Z,101895
2018-05-07T01:07:43.064Z,101896
2018-05-07T01:10:11.200Z,101895
2018-05-07T01:12:39.483Z,101899
2018-05-07T01:15:07.624Z,101899
2018-05-07T01:17:35.799Z,101889
2018-05-07T01:20:03.896Z,101897
2018-05-07T01:22:32.045Z,101893
2018-05-07T01:25:00.187Z,101887
2018-05-07T01:27:28.387Z,101903
2018-05-07T01:29:56.500Z,101895
2018-05-07T01:32:24.602Z,101890
2018-05-07T01:34:52.736Z,101887
2018-05-07T01:37:20.842Z,101897
2018-05-07T01:39:48.928Z,101895
2018-05-07T01:42:17.808Z,101902
2018-05-07T01:44:45.890Z,101889
2018-05-07T01:47:14.447Z,101890
2018-05-07T01:49:42.573Z,101896
2018-05-07T01:52:10.662Z,101893
2018-05-07T01:54:38.835Z,101891
2018-05-07T01:57:06.947Z,101893
2018-05-07T01:59:35.064Z,101891
2018-05-07T02:02:03.224Z,101896
2018-05-07T02:04:31.348Z,101897
2018-05-07T02:06:59.431Z,101901
2018-05-07T02:09:27.606Z,101902
2018-05-07T02:11:55.744Z,101905
2018-05-07T02:14:24.325Z,101900
2018-05-07T02:16:52.511Z,101902
2018-05-07T02:19:20.641Z,101908
2018-05-07T02:21:48.777Z,101903
2018-05-07T02:24:16.929Z,101898
2018-05-07T02:26:45.023Z,101895
2018-05-07T02:29:13.908Z,101900
2018-05-07T02:31:42.071Z,101893
2018-05-07T02:34:10.353Z,101899
2018-05-07T02:36:38.529Z,101888
2018-05-07T02:39:07.482Z,101890
2018-05-07T02:41:35.596Z,101899
2018-05-07T02:44:04.550Z,101889
2018-05-07T02:46:32.737Z,101904
2018-05-07T02:49:00.894Z,101892
2018-05-07T02:51:29.025Z,101893
2018-05-07T02:53:57.962Z,101895
2018-05-07T02:56:26.174Z,101890
2018-05-07T02:58:55.121Z,101886
2018-05-07T03:01:23.462Z,101878
2018-05-07T03:03:51.680Z,101882
2018-05-07T03:06:19.806Z,101890
2018-05-07T03:08:48.933Z,101883
2018-05-07T03:11:17.085Z,101882
2018-05-07T03:13:45.293Z,101882
2018-05-07T03:16:13.416Z,101874
2018-05-07T03:18:42.462Z,101876
2018-05-07T03:21:10.630Z,101878
2018-05-07T03:23:38.999Z,101874
2018-05-07T03:26:07.182Z,101875
2018-05-07T03:28:35.344Z,101869
2018-05-07T03:31:03.496Z,101875
2018-05-07T03:33:31.656Z,101875
2018-05-07T03:35:59.814Z,101877
2018-05-07T03:38:28.870Z,101870
2018-05-07T03:40:57.000Z,101856
2018-05-07T03:43:25.148Z,101864
2018-05-07T03:45:54.078Z,101870
2018-05-07T03:48:22.248Z,101864
2018-05-07T03:50:50.441Z,101869
2018-05-07T03:53:18.801Z,101870
2018-05-07T03:55:46.944Z,101870
2018-05-07T03:58:15.105Z,101857
2018-05-07T04:00:43.258Z,101863
2018-05-07T04:03:11.494Z,101856
2018-05-07T04:05:40.465Z,101857
2018-05-07T04:08:08.650Z,101856
2018-05-07T04:10:36.802Z,101857
2018-05-07T04:13:04.991Z,101844
2018-05-07T04:15:33.176Z,101857
2018-05-07T04:18:19.350Z,101845
2018-05-07T04:21:05.349Z,101843
2018-05-07T04:23:51.445Z,101846
2018-05-07T04:26:19.593Z,101856
2018-05-07T04:28:48.518Z,101849
2018-05-07T04:31:16.660Z,101856
2018-05-07T04:33:45.611Z,101858
2018-05-07T04:36:13.801Z,101855
2018-05-07T04:38:41.928Z,101843
2018-05-07T04:41:10.298Z,101854
2018-05-07T04:43:38.502Z,101855
2018-05-07T04:46:06.633Z,101857
2018-05-07T04:48:35.129Z,101846
2018-05-07T04:51:03.272Z,101852
2018-05-07T04:53:32.197Z,101853
2018-05-07T04:56:00.371Z,101839
2018-05-07T04:58:28.963Z,101849
2018-05-07T05:00:57.157Z,101849
2018-05-07T05:03:25.289Z,101849
2018-05-07T05:05:53.475Z,101858
2018-05-07T05:08:21.649Z,101855
2018-05-07T05:10:49.918Z,101857
2018-05-07T05:13:18.547Z,101856
2018-05-07T05:15:46.724Z,101853
2018-05-07T05:18:14.884Z,101859
2018-05-07T05:20:43.040Z,101853
2018-05-07T05:23:12.170Z,101856
2018-05-07T05:25:41.097Z,101850
2018-05-07T05:28:09.695Z,101846
2018-05-07T05:30:37.918Z,101846
2018-05-07T05:33:06.969Z,101852
2018-05-07T05:35:35.145Z,101847
2018-05-07T05:38:03.327Z,101847
2018-05-07T05:40:31.481Z,101851
2018-05-07T05:42:59.638Z,101850
2018-05-07T05:45:27.812Z,101851
2018-05-07T05:47:55.942Z,101851
2018-05-07T05:50:24.084Z,101860
2018-05-07T05:52:52.234Z,101864
2018-05-07T05:55:20.396Z,101863
2018-05-07T05:57:48.512Z,101861
2018-05-07T06:00:16.766Z,101870
2018-05-07T06:02:44.943Z,101871
2018-05-07T06:05:13.092Z,101861
2018-05-07T06:07:41.274Z,101860
2018-05-07T06:10:09.445Z,101856
2018-05-07T06:12:37.609Z,101863
2018-05-07T06:15:05.777Z,101861
2018-05-07T06:17:33.925Z,101860
2018-05-07T06:20:03.145Z,101859
2018-05-07T06:22:31.298Z,101859
2018-05-07T06:25:00.220Z,101859
2018-05-07T06:27:28.365Z,101858
2018-05-07T06:29:57.282Z,101860
2018-05-07T06:32:25.437Z,101853
2018-05-07T06:34:53.596Z,101857
2018-05-07T06:37:22.355Z,101856
2018-05-07T06:39:51.297Z,101861
2018-05-07T06:42:19.486Z,101857
2018-05-07T06:44:47.652Z,101855
2018-05-07T06:47:15.828Z,101853
2018-05-07T06:49:43.940Z,101855
2018-05-07T06:52:12.116Z,101853
2018-05-07T06:54:40.318Z,101857
2018-05-07T06:57:09.229Z,101847
2018-05-07T06:59:37.372Z,101848
2018-05-07T07:02:06.344Z,101843
2018-05-07T07:04:34.502Z,101842
2018-05-07T07:07:02.639Z,101840
2018-05-07T07:09:30.765Z,101831
2018-05-07T07:11:58.949Z,101831
2018-05-07T07:14:27.862Z,101840
2018-05-07T07:16:56.052Z,101840
2018-05-07T07:19:24.172Z,101836
2018-05-07T07:21:52.337Z,101840
2018-05-07T07:24:20.489Z,101844
2018-05-07T07:26:48.659Z,101839
2018-05-07T07:29:16.813Z,101836
2018-05-07T07:31:44.991Z,101827
2018-05-07T07:34:13.180Z,101833
2018-05-07T07:36:41.349Z,101829
2018-05-07T07:39:09.476Z,101843
2018-05-07T07:41:37.632Z,101838
2018-05-07T07:44:05.752Z,101840
2018-05-07T07:46:33.876Z,101839
2018-05-07T07:49:02.837Z,101845
2018-05-07T07:51:30.989Z,101840
2018-05-07T07:53:59.128Z,101841
2018-05-07T07:56:28.023Z,101837
2018-05-07T07:58:57.058Z,101832
2018-05-07T08:01:25.216Z,101834
2018-05-07T08:03:53.495Z,101828
2018-05-07T08:06:21.622Z,101832
2018-05-07T08:08:50.555Z,101830
2018-05-07T08:11:18.701Z,101833
2018-05-07T08:13:46.917Z,101826
2018-05-07T08:16:15.063Z,101834
2018-05-07T08:18:43.225Z,101832
2018-05-07T08:21:11.373Z,101825
2018-05-07T08:23:40.300Z,101831
2018-05-07T08:26:08.441Z,101824
2018-05-07T08:28:37.351Z,101824
2018-05-07T08:31:05.469Z,101820
2018-05-07T08:33:33.637Z,101820
2018-05-07T08:36:02.146Z,101816
2018-05-07T08:38:31.057Z,101817
2018-05-07T08:41:00.081Z,101824
2018-05-07T08:43:28.235Z,101819
2018-05-07T08:45:56.469Z,101817
2018-05-07T08:48:24.702Z,101812
2018-05-07T08:50:52.937Z,101817
2018-05-07T08:53:21.047Z,101815
2018-05-07T08:55:49.204Z,101813
2018-05-07T08:58:17.345Z,101805
2018-05-07T09:00:45.578Z,101806
2018-05-07T09:03:13.738Z,101798
2018-05-07T09:05:41.901Z,101800
2018-05-07T09:08:10.086Z,101792
2018-05-07T09:10:38.247Z,101794
2018-05-07T09:13:06.470Z,101788
2018-05-07T09:15:34.649Z,101787
2018-05-07T09:18:03.571Z,101804
2018-05-07T09:20:31.965Z,101794
2018-05-07T09:23:00.135Z,101790
2018-05-07T09:25:28.327Z,101792
2018-05-07T09:27:56.472Z,101794
2018-05-07T09:30:24.689Z,101771
2018-05-07T09:32:53.361Z,101774
2018-05-07T09:35:22.357Z,101775
2018-05-07T09:37:50.533Z,101773
2018-05-07T09:40:18.709Z,101771
2018-05-07T09:42:46.898Z,101772
2018-05-07T09:45:15.832Z,101766
2018-05-07T09:47:43.979Z,101764
2018-05-07T09:50:12.911Z,101763
2018-05-07T09:52:41.110Z,101757
2018-05-07T09:55:09.260Z,101756
2018-05-07T09:57:37.415Z,101746
2018-05-07T10:00:05.594Z,101753
2018-05-07T10:02:33.821Z,101749
2018-05-07T10:05:01.922Z,101747
2018-05-07T10:07:30.154Z,101755
2018-05-07T10:09:58.288Z,101745
2018-05-07T10:12:26.590Z,101748
2018-05-07T10:14:54.711Z,101747
2018-05-07T10:17:23.656Z,101739
2018-05-07T10:19:51.833Z,101744
2018-05-07T10:22:19.992Z,101734
2018-05-07T10:24:48.145Z,101726
2018-05-07T10:27:16.301Z,101730
2018-05-07T10:29:44.543Z,101737
2018-05-07T10:32:12.629Z,101727
2018-05-07T10:34:41.517Z,101735
2018-05-07T10:37:10.467Z,101739
2018-05-07T10:39:38.650Z,101733
2018-05-07T10:42:06.776Z,101736
2018-05-07T10:44:34.980Z,101736
2018-05-07T10:47:03.581Z,101730
2018-05-07T10:49:31.751Z,101724
2018-05-07T10:51:59.925Z,101725
2018-05-07T10:54:28.077Z,101722
2018-05-07T10:56:56.247Z,101726
2018-05-07T10:59:24.372Z,101713
2018-05-07T11:01:53.285Z,101718
2018-05-07T11:04:21.409Z,101714
2018-05-07T11:06:49.813Z,101712
2018-05-07T11:09:18.696Z,101712
2018-05-07T11:11:46.809Z,101705
2018-05-07T11:14:14.986Z,101702
2018-05-07T11:16:43.165Z,101704
2018-05-07T11:19:11.949Z,101708
2018-05-07T11:21:40.086Z,101697
2018-05-07T11:24:08.979Z,101698
2018-05-07T11:26:37.890Z,101686
2018-05-07T11:29:06.021Z,101696
2018-05-07T11:31:34.259Z,101696
2018-05-07T11:34:02.409Z,101686
2018-05-07T11:36:30.586Z,101690
2018-05-07T11:38:58.733Z,101691
2018-05-07T11:41:26.905Z,101691
2018-05-07T11:43:55.926Z,101698
2018-05-07T11:46:24.077Z,101694
2018-05-07T11:48:53.272Z,101687
2018-05-07T11:51:21.418Z,101685
2018-05-07T11:53:50.366Z,101684
2018-05-07T11:56:18.508Z,101679
2018-05-07T11:58:47.504Z,101684
2018-05-07T12:01:15.649Z,101675
2018-05-07T12:03:43.853Z,101682
2018-05-07T12:06:12.029Z,101680
2018-05-07T12:08:40.202Z,101683
2018-05-07T12:11:08.334Z,101683
2018-05-07T12:13:36.499Z,101680
2018-05-07T12:16:04.717Z,101671
2018-05-07T12:18:32.793Z,101669
2018-05-07T12:21:00.925Z,101663
2018-05-07T12:23:29.077Z,101667
2018-05-07T12:25:57.250Z,101670
2018-05-07T12:28:25.490Z,101670
2018-05-07T12:30:53.901Z,101667
2018-05-07T12:33:22.041Z,101661
2018-05-07T12:35:50.213Z,101661
2018-05-07T12:38:18.349Z,101661
2018-05-07T12:40:46.473Z,101654
2018-05-07T12:43:14.618Z,101650
2018-05-07T12:45:43.334Z,101647
2018-05-07T12:48:11.570Z,101643
2018-05-07T12:50:40.494Z,101637
2018-05-07T12:53:08.667Z,101627
2018-05-07T12:55:36.821Z,101635
2018-05-07T12:58:05.010Z,101620
2018-05-07T13:00:33.209Z,101629
2018-05-07T13:03:01.321Z,101617
2018-05-07T13:05:30.224Z,101624
2018-05-07T13:07:58.417Z,101620
2018-05-07T13:10:26.591Z,101614
2018-05-07T13:12:55.596Z,101619
2018-05-07T13:15:23.744Z,101612
2018-05-07T13:17:51.953Z,101608
2018-05-07T13:20:20.092Z,101604
2018-05-07T13:22:48.246Z,101591
2018-05-07T13:25:16.447Z,101582
2018-05-07T13:27:44.655Z,101590
2018-05-07T13:30:12.805Z,101581
2018-05-07T13:32:40.932Z,101581
2018-05-07T13:35:09.876Z,101589
2018-05-07T13:37:38.017Z,101577
2018-05-07T13:40:06.243Z,101576
2018-05-07T13:42:34.475Z,101572
2018-05-07T13:45:02.588Z,101568
2018-05-07T13:47:30.776Z,101571
2018-05-07T13:50:00.180Z,101569
2018-05-07T13:52:29.117Z,101570
2018-05-07T13:54:57.262Z,101569
2018-05-07T13:57:25.438Z,101557
2018-05-07T13:59:53.553Z,101558
2018-05-07T14:02:21.834Z,101560
2018-05-07T14:04:49.997Z,101561
2018-05-07T14:07:18.160Z,101556
2018-05-07T14:09:46.428Z,101553
2018-05-07T14:12:14.564Z,101557
2018-05-07T14:14:43.460Z,101547
2018-05-07T14:17:12.153Z,101549
2018-05-07T14:19:40.318Z,101538
2018-05-07T14:22:08.475Z,101533
2018-05-07T14:24:37.387Z,101540
2018-05-07T14:27:05.598Z,101541
2018-05-07T14:29:33.865Z,101543
2018-05-07T14:32:01.977Z,101539
2018-05-07T14:34:30.902Z,101540
2018-05-07T14:36:59.110Z,101537
2018-05-07T14:39:27.261Z,101530
2018-05-07T14:41:55.402Z,101523
2018-05-07T14:44:24.302Z,101519
2018-05-07T14:46:52.438Z,101512
2018-05-07T14:49:20.554Z,101509
2018-05-07T14:51:49.125Z,101509
2018-05-07T14:54:17.272Z,101506
2018-05-07T14:56:45.442Z,101506
2018-05-07T14:59:13.629Z,101503
2018-05-07T15:01:42.549Z,101499
2018-05-07T15:04:10.832Z,101498
2018-05-07T15:06:38.979Z,101503
2018-05-07T15:09:07.863Z,101497
2018-05-07T15:11:36.889Z,101496
2018-05-07T15:14:22.849Z,101498
2018-05-07T15:16:52.169Z,101497
2018-05-07T15:19:20.380Z,101501
2018-05-07T15:21:48.545Z,101490
2018-05-07T15:24:16.705Z,101495
2018-05-07T15:26:45.162Z,101487
2018-05-07T15:29:13.376Z,101485
2018-05-07T15:31:41.499Z,101477
2018-05-07T15:34:09.652Z,101481
2018-05-07T15:36:38.586Z,101486
2018-05-07T15:39:06.729Z,101488
2018-05-07T15:41:35.611Z,101482
2018-05-07T15:44:04.585Z,101483
2018-05-07T15:46:33.420Z,101480
2018-05-07T15:49:01.568Z,101480
2018-05-07T15:51:30.517Z,101477
2018-05-07T15:53:58.679Z,101481
2018-05-07T15:56:26.889Z,101480
2018-05-07T15:58:55.928Z,101473
2018-05-07T16:01:24.088Z,101473
2018-05-07T16:03:52.249Z,101467
2018-05-07T16:06:20.442Z,101464
2018-05-07T16:08:48.677Z,101469
2018-05-07T16:11:17.886Z,101468
2018-05-07T16:13:46.793Z,101469
2018-05-07T16:16:14.931Z,101467
2018-05-07T16:18:43.064Z,101460
2018-05-07T16:21:11.209Z,101458
2018-05-07T16:23:39.321Z,101459
2018-05-07T16:26:07.452Z,101459
2018-05-07T16:28:35.674Z,101456
2018-05-07T16:31:03.936Z,101453
2018-05-07T16:33:32.803Z,101448
2018-05-07T16:36:00.922Z,101445
2018-05-07T16:38:39.032Z,101450
2018-05-07T16:41:07.180Z,101448
2018-05-07T16:43:35.616Z,101442
2018-05-07T16:46:04.746Z,101444
2018-05-07T16:48:33.136Z,101448
2018-05-07T16:51:01.253Z,101445
2018-05-07T16:53:30.705Z,101448
2018-05-07T16:55:58.875Z,101441
2018-05-07T16:58:27.002Z,101438
2018-05-07T17:00:56.019Z,101436
2018-05-07T17:03:24.139Z,101445
2018-05-07T17:05:52.306Z,101428
2018-05-07T17:08:20.470Z,101430
2018-05-07T17:10:48.642Z,101427
2018-05-07T17:13:27.018Z,101433
2018-05-07T17:16:07.237Z,101427
2018-05-07T17:18:36.164Z,101421
2018-05-07T17:21:04.294Z,101422
2018-05-07T17:23:32.431Z,101428
2018-05-07T17:26:00.574Z,101424
2018-05-07T17:28:28.680Z,101428
2018-05-07T17:30:56.956Z,101428
2018-05-07T17:33:25.108Z,101429
2018-05-07T17:35:53.279Z,101432
2018-05-07T17:38:21.705Z,101435
2018-05-07T17:40:49.874Z,101428
2018-05-07T17:43:18.025Z,101431
2018-05-07T17:46:06.049Z,101422
2018-05-07T17:48:52.141Z,101427
2018-05-07T17:51:20.297Z,101428
2018-05-07T17:53:48.486Z,101427
2018-05-07T17:56:16.647Z,101421
2018-05-07T17:58:44.790Z,101423
2018-05-07T18:01:13.805Z,101415
2018-05-07T18:03:41.964Z,101417
2018-05-07T18:06:10.118Z,101414
2018-05-07T18:08:38.273Z,101411
2018-05-07T18:11:06.603Z,101408
2018-05-07T18:13:34.758Z,101405
2018-05-07T18:16:02.896Z,101404
2018-05-07T18:18:31.175Z,101399
2018-05-07T18:20:59.303Z,101403
2018-05-07T18:23:27.509Z,101400
2018-05-07T18:25:55.692Z,101398
2018-05-07T18:28:23.943Z,101396
2018-05-07T18:30:52.111Z,101393
2018-05-07T18:33:20.265Z,101402
2018-05-07T18:35:48.412Z,101398
2018-05-07T18:38:17.335Z,101400
2018-05-07T18:40:45.520Z,101400
2018-05-07T18:43:13.678Z,101398
2018-05-07T18:45:41.842Z,101395
2018-05-07T18:48:10.030Z,101403
2018-05-07T18:50:38.188Z,101401
2018-05-07T18:53:06.396Z,101395
2018-05-07T18:55:34.528Z,101398
2018-05-07T18:58:02.685Z,101400
2018-05-07T19:00:31.585Z,101392
2018-05-07T19:02:59.727Z,101389
2018-05-07T19:05:27.926Z,101394
2018-05-07T19:07:56.102Z,101387
2018-05-07T19:10:24.232Z,101398
2018-05-07T19:12:52.389Z,101391
2018-05-07T19:15:20.525Z,101392
2018-05-07T19:17:48.661Z,101394
2018-05-07T19:20:17.577Z,101386
2018-05-07T19:22:46.485Z,101394
2018-05-07T19:25:14.677Z,101391
2018-05-07T19:27:42.830Z,101384
2018-05-07T19:30:11.074Z,101390
2018-05-07T19:32:39.991Z,101389
2018-05-07T19:35:08.147Z,101389
2018-05-07T19:37:36.353Z,101388
2018-05-07T19:40:04.791Z,101392
2018-05-07T19:42:32.917Z,101386
2018-05-07T19:45:01.092Z,101394
2018-05-07T19:47:29.242Z,101387
2018-05-07T19:49:57.468Z,101386
2018-05-07T19:52:25.592Z,101388
2018-05-07T19:54:53.732Z,101387
2018-05-07T19:57:22.638Z,101378
2018-05-07T19:59:50.825Z,101385
2018-05-07T20:02:18.947Z,101372
2018-05-07T20:04:47.185Z,101374
2018-05-07T20:07:15.341Z,101380
2018-05-07T20:09:43.482Z,101380
2018-05-07T20:12:12.501Z,101382
2018-05-07T20:14:40.577Z,101379
2018-05-07T20:17:09.117Z,101382
2018-05-07T20:19:38.055Z,101374
2018-05-07T20:22:06.179Z,101373
2018-05-07T20:24:34.321Z,101366
2018-05-07T20:27:02.521Z,101372
2018-05-07T20:29:30.682Z,101371
2018-05-07T20:31:58.846Z,101368
2018-05-07T20:34:27.038Z,101363
2018-05-07T20:36:55.469Z,101360
2018-05-07T20:39:23.622Z,101366
2018-05-07T20:41:51.804Z,101360
2018-05-07T20:44:20.021Z,101359
2018-05-07T20:46:48.180Z,101362
2018-05-07T20:49:16.305Z,101365
2018-05-07T20:51:45.202Z,101366
2018-05-07T20:54:13.380Z,101363
2018-05-07T20:56:41.554Z,101357
2018-05-07T20:59:09.704Z,101348
2018-05-07T21:01:38.640Z,101352
2018-05-07T21:04:07.998Z,101355
2018-05-07T21:06:36.945Z,101356
2018-05-07T21:09:05.147Z,101348
2018-05-07T21:11:34.058Z,101352
2018-05-07T21:14:02.263Z,101359
2018-05-07T21:16:30.852Z,101352
2018-05-07T21:18:59.030Z,101359
2018-05-07T21:21:27.183Z,101346
2018-05-07T21:23:55.408Z,101342
2018-05-07T21:26:23.489Z,101349
2018-05-07T21:28:51.733Z,101347
2018-05-07T21:31:20.179Z,101351
2018-05-07T21:33:48.385Z,101342
2018-05-07T21:36:16.565Z,101342
2018-05-07T21:38:45.569Z,101341
2018-05-07T21:41:13.729Z,101341
2018-05-07T21:43:41.865Z,101348
2018-05-07T21:46:10.042Z,101352
2018-05-07T21:48:38.157Z,101351
2018-05-07T21:51:06.329Z,101347
2018-05-07T21:53:34.449Z,101359
2018-05-07T21:56:03.474Z,101352
2018-05-07T21:58:31.640Z,101351
2018-05-07T22:00:59.777Z,101350
2018-05-07T22:03:27.940Z,101356
2018-05-07T22:05:56.163Z,101356
2018-05-07T22:08:24.309Z,101360
2018-05-07T22:10:52.453Z,101361
2018-05-07T22:13:20.649Z,101358
2018-05-07T22:15:48.824Z,101360
2018-05-07T22:18:17.015Z,101357
2018-05-07T22:20:45.251Z,101355
2018-05-07T22:23:13.390Z,101352
2018-05-07T22:25:41.577Z,101351
2018-05-07T22:28:09.725Z,101343
2018-05-07T22:30:37.845Z,101342
2018-05-07T22:33:06.037Z,101343
2018-05-07T22:35:34.175Z,101338
2018-05-07T22:38:03.111Z,101337
2018-05-07T22:40:31.295Z,101342
2018-05-07T22:42:59.489Z,101344
2018-05-07T22:45:27.604Z,101347
2018-05-07T22:47:56.477Z,101342
2018-05-07T22:50:25.416Z,101348
2018-05-07T22:52:53.541Z,101341
2018-05-07T22:55:22.485Z,101340
2018-05-07T22:57:50.638Z,101342
2018-05-07T23:00:18.758Z,101338
2018-05-07T23:02:48.882Z,101341
2018-05-07T23:05:17.938Z,101336
2018-05-07T23:07:46.110Z,101342
2018-05-07T23:10:14.320Z,101334
2018-05-07T23:12:43.394Z,101331
2018-05-07T23:15:11.610Z,101323
2018-05-07T23:17:40.554Z,101328
2018-05-07T23:20:08.904Z,101319
2018-05-07T23:22:37.060Z,101321
2018-05-07T23:25:06.061Z,101326
2018-05-07T23:27:34.214Z,101322
2018-05-07T23:30:03.153Z,101323
2018-05-07T23:32:31.290Z,101327
2018-05-07T23:34:59.492Z,101322
2018-05-07T23:37:27.786Z,101326
2018-05-07T23:39:55.944Z,101329
2018-05-07T23:42:24.095Z,101324
2018-05-07T23:44:52.209Z,101326
2018-05-07T23:47:20.392Z,101328
2018-05-07T23:49:48.609Z,101325
2018-05-07T23:52:16.782Z,101320
2018-05-07T23:54:44.978Z,101321
2018-05-07T23:57:13.969Z,101310
2018-05-07T23:59:42.121Z,101318
